createdAt,value
2018-12-29T00:01:07.525Z,3.50
2018-12-29T00:03:37.081Z,3.77
2018-12-29T00:06:06.442Z,3.57
2018-12-29T00:08:36.222Z,4.33
2018-12-29T00:11:05.527Z,3.40
2018-12-29T00:13:35.178Z,3.43
2018-12-29T00:18:39.147Z,3.80
2018-12-29T00:21:08.645Z,2.93
2018-12-29T00:23:37.953Z,3.13
2018-12-29T00:26:07.431Z,2.70
2018-12-29T00:28:36.749Z,2.73
2018-12-29T00:31:06.448Z,3.20
2018-12-29T00:33:35.788Z,3.07
2018-12-29T00:36:07.253Z,3.00
2018-12-29T00:38:55.645Z,3.40
2018-12-29T00:41:24.976Z,3.33
2018-12-29T00:43:54.304Z,3.17
2018-12-29T00:46:23.609Z,3.83
2018-12-29T00:48:53.409Z,4.30
2018-12-29T00:51:22.737Z,4.60
2018-12-29T00:53:52.443Z,4.23
2018-12-29T00:56:21.796Z,3.77
2018-12-29T01:01:40.019Z,4.20
2018-12-29T01:04:09.343Z,3.97
2018-12-29T01:06:38.774Z,3.93
2018-12-29T01:09:08.228Z,3.50
2018-12-29T01:11:37.667Z,2.93
2018-12-29T01:14:06.979Z,2.90
2018-12-29T01:16:36.425Z,2.30
2018-12-29T01:19:05.750Z,2.97
2018-12-29T01:21:35.370Z,2.57
2018-12-29T01:24:04.707Z,1.70
2018-12-29T01:26:34.306Z,2.20
2018-12-29T01:29:03.592Z,2.53
2018-12-29T01:31:33.386Z,1.90
2018-12-29T01:34:02.720Z,1.97
2018-12-29T01:36:32.351Z,1.50
2018-12-29T01:39:02.036Z,1.60
2018-12-29T01:41:31.550Z,1.43
2018-12-29T01:44:00.856Z,1.90
2018-12-29T01:46:30.597Z,1.70
2018-12-29T01:48:59.903Z,1.50
2018-12-29T01:51:29.322Z,1.40
2018-12-29T01:54:17.567Z,1.50
2018-12-29T01:56:46.901Z,1.93
2018-12-29T01:59:16.539Z,1.17
2018-12-29T02:01:46.379Z,1.60
2018-12-29T02:04:15.894Z,1.77
2018-12-29T02:06:45.216Z,1.50
2018-12-29T02:09:14.998Z,1.07
2018-12-29T02:11:44.312Z,1.47
2018-12-29T02:14:13.764Z,1.60
2018-12-29T02:16:43.106Z,1.67
2018-12-29T02:19:12.423Z,1.70
2018-12-29T02:21:41.749Z,2.47
2018-12-29T02:24:11.406Z,2.03
2018-12-29T02:26:40.745Z,1.73
2018-12-29T02:29:10.402Z,1.53
2018-12-29T02:31:39.768Z,1.87
2018-12-29T02:34:09.185Z,1.60
2018-12-29T02:36:38.523Z,1.57
2018-12-29T02:39:08.759Z,1.93
2018-12-29T02:41:38.018Z,1.60
2018-12-29T02:44:07.465Z,1.73
2018-12-29T02:46:36.824Z,1.70
2018-12-29T02:49:06.503Z,2.13
2018-12-29T02:51:35.810Z,2.17
2018-12-29T02:54:05.240Z,1.57
2018-12-29T02:56:34.553Z,1.50
2018-12-29T02:59:04.290Z,1.47
2018-12-29T03:01:33.615Z,1.47
2018-12-29T03:04:03.218Z,1.80
2018-12-29T03:06:32.607Z,1.60
2018-12-29T03:09:02.202Z,1.70
2018-12-29T03:11:31.506Z,1.70
2018-12-29T03:14:00.834Z,1.83
2018-12-29T03:16:30.227Z,2.10
2018-12-29T03:19:03.678Z,1.53
2018-12-29T03:21:36.726Z,2.20
2018-12-29T03:24:06.042Z,1.93
2018-12-29T03:26:36.321Z,1.67
2018-12-29T03:29:25.636Z,1.60
2018-12-29T03:31:59.194Z,1.70
2018-12-29T03:34:29.654Z,1.60
2018-12-29T03:36:59.116Z,1.50
2018-12-29T03:39:28.472Z,1.97
2018-12-29T03:44:34.187Z,2.00
2018-12-29T03:47:23.169Z,2.07
2018-12-29T03:52:42.731Z,2.00
2018-12-29T03:55:12.440Z,1.80
2018-12-29T03:57:41.784Z,2.13
2018-12-29T04:00:11.382Z,2.07
2018-12-29T04:02:40.698Z,2.07
2018-12-29T04:05:10.305Z,2.57
2018-12-29T04:07:39.708Z,2.03
2018-12-29T04:10:13.725Z,1.87
2018-12-29T04:12:45.990Z,2.00
2018-12-29T04:15:15.309Z,1.97
2018-12-29T04:17:45.014Z,1.80
2018-12-29T04:20:14.390Z,1.63
2018-12-29T04:22:44.059Z,1.83
2018-12-29T04:25:13.383Z,1.30
2018-12-29T04:27:43.052Z,1.80
2018-12-29T04:30:12.412Z,1.87
2018-12-29T04:32:41.836Z,1.40
2018-12-29T04:35:11.168Z,1.30
2018-12-29T04:37:40.676Z,1.00
2018-12-29T04:40:10.008Z,1.30
2018-12-29T04:45:14.405Z,1.20
2018-12-29T04:47:43.733Z,1.43
2018-12-29T04:50:13.399Z,1.30
2018-12-29T04:52:42.740Z,1.50
2018-12-29T04:55:12.947Z,1.20
2018-12-29T04:57:42.289Z,1.30
2018-12-29T05:00:11.964Z,1.47
2018-12-29T05:02:41.402Z,1.30
2018-12-29T05:05:10.888Z,1.20
2018-12-29T05:07:40.220Z,1.40
2018-12-29T05:10:09.917Z,1.17
2018-12-29T05:12:39.264Z,1.30
2018-12-29T05:15:08.685Z,1.20
2018-12-29T05:17:38.022Z,1.33
2018-12-29T05:20:07.500Z,1.30
2018-12-29T05:22:36.904Z,1.27
2018-12-29T05:25:25.288Z,1.30
2018-12-29T05:27:54.941Z,1.40
2018-12-29T05:30:24.254Z,1.70
2018-12-29T05:32:53.916Z,1.60
2018-12-29T05:35:23.293Z,1.70
2018-12-29T05:37:52.824Z,1.37
2018-12-29T05:40:22.189Z,1.90
2018-12-29T05:42:51.738Z,2.00
2018-12-29T05:45:21.056Z,1.90
2018-12-29T05:47:50.637Z,1.30
2018-12-29T05:50:19.958Z,1.97
2018-12-29T05:52:49.462Z,1.73
2018-12-29T05:55:18.836Z,1.80
2018-12-29T05:57:48.476Z,1.47
2018-12-29T06:00:17.816Z,1.80
2018-12-29T06:02:47.288Z,1.80
2018-12-29T06:05:16.624Z,1.50
2018-12-29T06:07:46.200Z,1.80
2018-12-29T06:10:15.527Z,1.60
2018-12-29T06:12:45.403Z,2.57
2018-12-29T06:15:14.708Z,1.43
2018-12-29T06:17:44.348Z,1.50
2018-12-29T06:20:13.676Z,1.60
2018-12-29T06:22:43.421Z,1.33
2018-12-29T06:25:12.761Z,1.50
2018-12-29T06:27:42.401Z,1.30
2018-12-29T06:30:30.787Z,1.47
2018-12-29T06:33:00.126Z,2.20
2018-12-29T06:35:29.449Z,1.90
2018-12-29T06:38:17.702Z,2.23
2018-12-29T06:40:47.021Z,1.93
2018-12-29T06:43:16.438Z,1.80
2018-12-29T06:45:45.776Z,2.10
2018-12-29T06:48:15.244Z,2.00
2018-12-29T06:50:44.549Z,2.03
2018-12-29T06:53:14.568Z,1.50
2018-12-29T06:55:43.891Z,1.47
2018-12-29T06:58:13.284Z,1.90
2018-12-29T07:00:42.653Z,1.70
2018-12-29T07:03:12.480Z,2.20
2018-12-29T07:05:41.808Z,2.20
2018-12-29T07:08:11.532Z,1.40
2018-12-29T07:13:29.153Z,1.27
2018-12-29T07:15:58.826Z,1.20
2018-12-29T07:18:28.139Z,1.40
2018-12-29T07:20:57.901Z,1.23
2018-12-29T07:23:27.218Z,2.40
2018-12-29T07:25:57.154Z,1.57
2018-12-29T07:28:26.658Z,1.50
2018-12-29T07:30:56.630Z,1.33
2018-12-29T07:33:26.036Z,1.13
2018-12-29T07:35:55.656Z,1.40
2018-12-29T07:38:24.974Z,1.17
2018-12-29T07:41:13.349Z,1.60
2018-12-29T07:43:43.116Z,2.13
2018-12-29T07:46:31.607Z,1.50
2018-12-29T07:49:00.969Z,1.40
2018-12-29T07:51:30.409Z,1.63
2018-12-29T07:53:59.850Z,1.27
2018-12-29T07:56:29.266Z,2.03
2018-12-29T07:59:17.750Z,1.30
2018-12-29T08:01:47.068Z,1.47
2018-12-29T08:04:35.340Z,1.90
2018-12-29T08:07:04.817Z,1.67
2018-12-29T08:09:34.146Z,2.10
2018-12-29T08:12:03.581Z,1.77
2018-12-29T08:14:32.992Z,2.33
2018-12-29T08:17:02.428Z,1.30
2018-12-29T08:19:31.767Z,1.60
2018-12-29T08:22:01.151Z,1.30
2018-12-29T08:24:49.599Z,1.67
2018-12-29T08:27:18.964Z,1.90
2018-12-29T08:29:48.395Z,1.40
2018-12-29T08:32:36.795Z,2.13
2018-12-29T08:35:06.542Z,1.40
2018-12-29T08:37:35.857Z,1.90
2018-12-29T08:40:05.319Z,1.77
2018-12-29T08:42:34.986Z,1.70
2018-12-29T08:45:04.598Z,1.53
2018-12-29T08:47:33.939Z,1.37
2018-12-29T08:50:03.355Z,1.60
2018-12-29T08:52:32.667Z,1.60
2018-12-29T08:55:02.570Z,2.00
2018-12-29T08:57:31.949Z,1.37
2018-12-29T09:00:01.381Z,1.40
2018-12-29T09:02:30.747Z,0.93
2018-12-29T09:05:00.471Z,1.10
2018-12-29T09:07:29.807Z,1.07
2018-12-29T09:09:59.407Z,1.17
2018-12-29T09:12:28.730Z,1.13
2018-12-29T09:14:58.385Z,1.37
2018-12-29T09:17:27.723Z,1.10
2018-12-29T09:19:57.371Z,1.00
2018-12-29T09:22:26.713Z,1.20
2018-12-29T09:24:56.304Z,1.30
2018-12-29T09:27:25.612Z,1.20
2018-12-29T09:29:55.169Z,1.10
2018-12-29T09:32:24.531Z,1.43
2018-12-29T09:34:54.059Z,1.50
2018-12-29T09:37:23.376Z,1.30
2018-12-29T09:39:52.945Z,0.97
2018-12-29T09:42:22.263Z,1.43
2018-12-29T09:44:51.811Z,0.67
2018-12-29T09:49:56.578Z,1.47
2018-12-29T09:55:01.404Z,1.40
2018-12-29T09:57:30.746Z,1.50
2018-12-29T10:00:00.649Z,1.20
2018-12-29T10:02:29.979Z,1.70
2018-12-29T10:04:59.552Z,1.80
2018-12-29T10:07:28.886Z,1.53
2018-12-29T10:09:58.477Z,1.87
2018-12-29T10:12:27.840Z,1.43
2018-12-29T10:14:57.380Z,1.27
2018-12-29T10:17:27.861Z,1.30
2018-12-29T10:19:58.087Z,1.20
2018-12-29T10:22:27.432Z,1.40
2018-12-29T10:24:56.914Z,1.47
2018-12-29T10:27:26.306Z,1.20
2018-12-29T10:29:55.713Z,0.90
2018-12-29T10:32:25.030Z,1.20
2018-12-29T10:34:54.684Z,1.17
2018-12-29T10:37:24.007Z,1.60
2018-12-29T10:39:53.493Z,1.50
2018-12-29T10:42:22.855Z,1.67
2018-12-29T10:44:52.625Z,1.50
2018-12-29T10:47:21.934Z,1.20
2018-12-29T10:49:51.363Z,1.20
2018-12-29T10:52:20.683Z,1.40
2018-12-29T10:54:50.283Z,1.33
2018-12-29T10:57:19.665Z,1.40
2018-12-29T10:59:49.253Z,1.00
2018-12-29T11:02:18.718Z,1.10
2018-12-29T11:07:23.386Z,1.23
2018-12-29T11:09:52.732Z,0.77
2018-12-29T11:12:22.378Z,1.00
2018-12-29T11:14:51.709Z,1.00
2018-12-29T11:17:21.546Z,1.13
2018-12-29T11:20:10.029Z,0.67
2018-12-29T11:22:39.395Z,0.93
2018-12-29T11:25:09.161Z,0.70
2018-12-29T11:27:38.534Z,0.63
2018-12-29T11:30:08.349Z,0.83
2018-12-29T11:32:38.324Z,1.07
2018-12-29T11:35:07.972Z,0.73
2018-12-29T11:37:37.345Z,0.90
2018-12-29T11:42:55.594Z,1.13
2018-12-29T11:45:24.923Z,1.00
2018-12-29T11:47:54.559Z,1.10
2018-12-29T11:50:24.037Z,0.67
2018-12-29T11:52:53.932Z,0.83
2018-12-29T11:55:23.601Z,1.00
2018-12-29T11:57:53.396Z,1.00
2018-12-29T12:00:22.781Z,0.87
2018-12-29T12:02:52.342Z,0.70
2018-12-29T12:05:21.865Z,1.00
2018-12-29T12:07:51.553Z,1.00
2018-12-29T12:10:21.205Z,0.60
2018-12-29T12:12:50.648Z,0.70
2018-12-29T12:15:20.006Z,0.67
2018-12-29T12:17:49.412Z,0.70
2018-12-29T12:20:18.767Z,0.53
2018-12-29T12:22:48.668Z,0.70
2018-12-29T12:25:17.971Z,0.80
2018-12-29T12:27:47.690Z,0.70
2018-12-29T12:30:17.053Z,0.70
2018-12-29T12:32:46.590Z,0.50
2018-12-29T12:35:16.033Z,0.70
2018-12-29T12:37:45.572Z,0.80
2018-12-29T12:40:33.791Z,1.00
2018-12-29T12:43:03.144Z,0.90
2018-12-29T12:45:32.634Z,0.90
2018-12-29T12:48:05.216Z,0.53
2018-12-29T12:50:33.899Z,0.83
2018-12-29T12:53:03.221Z,0.60
2018-12-29T12:55:32.967Z,0.90
2018-12-29T12:58:21.524Z,0.80
2018-12-29T13:00:52.839Z,1.07
2018-12-29T13:03:22.528Z,1.13
2018-12-29T13:05:52.437Z,1.40
2018-12-29T13:08:21.813Z,1.20
2018-12-29T13:10:51.476Z,1.37
2018-12-29T13:13:20.818Z,1.23
2018-12-29T13:15:50.407Z,1.00
2018-12-29T13:18:19.796Z,0.90
2018-12-29T13:20:49.420Z,0.77
2018-12-29T13:23:18.762Z,0.93
2018-12-29T13:25:48.215Z,1.30
2018-12-29T13:28:17.603Z,1.07
2018-12-29T13:31:06.024Z,1.50
2018-12-29T13:33:35.562Z,1.50
2018-12-29T13:36:25.593Z,1.73
2018-12-29T13:38:54.922Z,1.43
2018-12-29T13:41:24.301Z,2.27
2018-12-29T13:51:38.461Z,1.00
2018-12-29T13:56:42.237Z,1.00
2018-12-29T13:59:11.994Z,0.80
2018-12-29T14:01:41.333Z,1.17
2018-12-29T14:04:11.002Z,1.10
2018-12-29T14:06:40.340Z,1.40
2018-12-29T14:09:10.069Z,1.33
2018-12-29T14:11:39.406Z,1.57
2018-12-29T14:14:08.821Z,1.30
2018-12-29T14:16:38.410Z,1.70
2018-12-29T14:19:08.124Z,1.23
2018-12-29T14:21:38.353Z,1.33
2018-12-29T14:24:07.678Z,1.70
2018-12-29T14:26:37.017Z,1.70
2018-12-29T14:29:06.424Z,1.70
2018-12-29T14:31:35.811Z,1.90
2018-12-29T14:34:05.356Z,1.80
2018-12-29T14:36:34.727Z,2.07
2018-12-29T14:39:24.766Z,1.90
2018-12-29T14:41:54.144Z,1.40
2018-12-29T14:44:23.533Z,1.90
2018-12-29T14:47:11.922Z,1.77
2018-12-29T14:49:41.448Z,1.77
2018-12-29T14:52:10.778Z,1.70
2018-12-29T14:54:40.558Z,1.57
2018-12-29T14:57:10.139Z,1.70
2018-12-29T14:59:58.553Z,2.00
2018-12-29T15:02:28.064Z,1.70
2018-12-29T15:05:16.353Z,1.80
2018-12-29T15:07:45.699Z,1.73
2018-12-29T15:10:15.288Z,1.63
2018-12-29T15:12:44.614Z,1.60
2018-12-29T15:15:14.517Z,1.37
2018-12-29T15:17:43.830Z,1.17
2018-12-29T15:20:13.528Z,1.33
2018-12-29T15:22:42.833Z,1.30
2018-12-29T15:25:12.215Z,0.73
2018-12-29T15:27:43.308Z,1.10
2018-12-29T15:30:12.623Z,0.83
2018-12-29T15:32:41.984Z,2.07
2018-12-29T15:35:11.689Z,1.20
2018-12-29T15:37:41.016Z,1.13
2018-12-29T15:40:10.349Z,1.10
2018-12-29T15:42:44.863Z,0.90
2018-12-29T15:47:59.164Z,0.97
2018-12-29T15:50:28.643Z,1.07
2018-12-29T15:52:58.136Z,0.90
2018-12-29T15:55:27.596Z,1.07
2018-12-29T15:58:15.945Z,0.90
2018-12-29T16:00:45.261Z,0.70
2018-12-29T16:03:14.997Z,0.80
2018-12-29T16:05:44.320Z,0.70
2018-12-29T16:08:13.789Z,0.80
2018-12-29T16:10:43.286Z,0.90
2018-12-29T16:13:12.659Z,0.77
2018-12-29T16:15:42.148Z,0.93
2018-12-29T16:18:12.338Z,0.80
2018-12-29T16:20:41.728Z,0.80
2018-12-29T16:23:11.062Z,0.80
2018-12-29T16:25:40.716Z,0.87
2018-12-29T16:28:10.093Z,0.90
2018-12-29T16:30:39.445Z,0.70
2018-12-29T16:33:08.932Z,0.87
2018-12-29T16:35:38.246Z,0.80
2018-12-29T16:38:09.319Z,1.00
2018-12-29T16:40:38.858Z,0.73
2018-12-29T16:43:27.158Z,0.70
2018-12-29T16:45:56.561Z,0.80
2018-12-29T16:48:25.923Z,0.80
2018-12-29T16:51:16.027Z,0.83
2018-12-29T16:53:47.350Z,1.00
2018-12-29T16:59:05.853Z,1.30
2018-12-29T17:01:35.625Z,1.00
2018-12-29T17:04:04.963Z,0.83
2018-12-29T17:06:34.929Z,0.90
2018-12-29T17:12:13.616Z,0.83
2018-12-29T17:15:02.282Z,0.93
2018-12-29T17:17:31.657Z,0.70
2018-12-29T17:20:01.210Z,0.90
2018-12-29T17:22:30.797Z,0.70
2018-12-29T17:25:00.664Z,0.73
2018-12-29T17:27:30.004Z,0.73
2018-12-29T17:30:00.010Z,0.73
2018-12-29T17:32:29.345Z,0.90
2018-12-29T17:34:58.982Z,0.70
2018-12-29T17:37:28.292Z,0.70
2018-12-29T17:39:57.754Z,0.67
2018-12-29T17:42:27.297Z,0.57
2018-12-29T17:44:56.745Z,0.80
2018-12-29T17:47:26.098Z,0.73
2018-12-29T17:49:55.659Z,0.63
2018-12-29T17:52:25.009Z,0.60
2018-12-29T17:54:56.289Z,0.80
2018-12-29T17:57:25.665Z,0.87
2018-12-29T18:02:43.657Z,0.90
2018-12-29T18:05:32.010Z,1.00
2018-12-29T18:08:01.355Z,0.80
2018-12-29T18:10:31.224Z,1.33
2018-12-29T18:13:00.571Z,1.10
2018-12-29T18:15:30.104Z,1.10
2018-12-29T18:17:59.408Z,1.37
2018-12-29T18:20:28.928Z,1.20
2018-12-29T18:22:58.259Z,1.27
2018-12-29T18:25:27.886Z,1.20
2018-12-29T18:27:57.203Z,1.57
2018-12-29T18:30:26.952Z,1.13
2018-12-29T18:32:56.271Z,1.10
2018-12-29T18:35:25.809Z,1.23
2018-12-29T18:37:55.132Z,1.27
2018-12-29T18:40:24.703Z,5.27
2018-12-29T18:42:54.030Z,5.37
2018-12-29T18:45:23.701Z,1.90
2018-12-29T18:47:53.025Z,1.70
2018-12-29T18:50:22.488Z,1.33
2018-12-29T18:52:51.909Z,1.33
2018-12-29T18:55:21.516Z,1.40
2018-12-29T18:57:51.208Z,1.30
2018-12-29T19:00:20.865Z,1.50
2018-12-29T19:02:50.203Z,1.33
2018-12-29T19:05:19.935Z,1.30
2018-12-29T19:08:08.597Z,1.20
2018-12-29T19:10:37.915Z,1.30
2018-12-29T19:13:07.523Z,1.47
2018-12-29T19:15:37.284Z,1.50
2018-12-29T19:18:07.145Z,1.10
2018-12-29T19:20:38.429Z,1.20
2018-12-29T19:23:08.235Z,0.97
2018-12-29T19:25:37.586Z,1.00
2018-12-29T19:28:07.202Z,1.07
2018-12-29T19:30:38.408Z,1.00
2018-12-29T19:33:08.024Z,1.03
2018-12-29T19:35:37.438Z,1.00
2018-12-29T19:38:06.815Z,0.80
2018-12-29T19:40:36.522Z,1.22
2018-12-29T19:43:05.856Z,0.80
2018-12-29T19:45:35.762Z,0.80
2018-12-29T19:48:25.125Z,1.07
2018-12-29T19:50:55.425Z,0.90
2018-12-29T19:53:26.641Z,1.00
2018-12-29T19:55:56.215Z,1.07
2018-12-29T20:01:00.818Z,1.20
2018-12-29T20:03:30.155Z,1.43
2018-12-29T20:05:59.819Z,1.00
2018-12-29T20:08:30.875Z,1.10
2018-12-29T20:11:00.326Z,1.17
2018-12-29T20:13:29.753Z,1.60
2018-12-29T20:15:59.251Z,1.20
2018-12-29T20:18:29.313Z,1.37
2018-12-29T20:20:59.059Z,1.50
2018-12-29T20:23:28.481Z,1.40
2018-12-29T20:25:58.000Z,1.40
2018-12-29T20:28:27.459Z,1.50
2018-12-29T20:30:56.784Z,1.80
2018-12-29T20:33:26.514Z,1.90
2018-12-29T20:36:15.038Z,2.20
2018-12-29T20:38:44.830Z,2.37
2018-12-29T20:41:14.231Z,2.33
2018-12-29T20:43:43.803Z,1.80
2018-12-29T20:46:13.236Z,1.70
2018-12-29T20:48:42.616Z,2.03
2018-12-29T20:51:12.000Z,1.80
2018-12-29T20:54:00.473Z,2.30
2018-12-29T20:56:30.143Z,2.07
2018-12-29T20:59:00.468Z,1.70
2018-12-29T21:01:29.984Z,1.70
2018-12-29T21:03:59.391Z,1.60
2018-12-29T21:06:28.770Z,1.70
2018-12-29T21:08:58.151Z,1.67
2018-12-29T21:11:27.695Z,1.50
2018-12-29T21:13:57.094Z,1.20
2018-12-29T21:16:26.551Z,1.50
2018-12-29T21:18:55.920Z,1.70
2018-12-29T21:21:25.294Z,1.40
2018-12-29T21:23:54.746Z,1.60
2018-12-29T21:26:24.143Z,1.97
2018-12-29T21:28:53.539Z,1.60
2018-12-29T21:31:23.293Z,2.10
2018-12-29T21:33:52.658Z,2.23
2018-12-29T21:36:22.072Z,2.23
2018-12-29T21:38:51.451Z,2.17
2018-12-29T21:41:39.868Z,2.77
2018-12-29T21:44:09.875Z,2.70
2018-12-29T21:46:39.221Z,2.80
2018-12-29T21:49:08.595Z,2.83
2018-12-29T21:51:38.051Z,3.23
2018-12-29T21:54:07.879Z,3.10
2018-12-29T21:56:38.303Z,3.37
2018-12-29T21:59:07.723Z,3.20
2018-12-29T22:01:56.101Z,2.90
2018-12-29T22:04:25.472Z,2.63
2018-12-29T22:06:55.077Z,3.40
2018-12-29T22:09:24.466Z,3.03
2018-12-29T22:11:54.240Z,3.57
2018-12-29T22:14:23.608Z,3.73
2018-12-29T22:16:53.274Z,3.37
2018-12-29T22:19:22.622Z,3.50
2018-12-29T22:21:54.420Z,3.67
2018-12-29T22:24:23.807Z,3.00
2018-12-29T22:27:12.284Z,3.47
2018-12-29T22:29:41.672Z,3.10
2018-12-29T22:32:11.068Z,2.80
2018-12-29T22:34:40.510Z,2.47
2018-12-29T22:37:09.896Z,2.63
2018-12-29T22:39:39.285Z,2.77
2018-12-29T22:42:08.811Z,2.60
2018-12-29T22:44:38.143Z,2.60
2018-12-29T22:47:07.683Z,2.33
2018-12-29T22:49:37.142Z,3.03
2018-12-29T22:52:06.717Z,2.63
2018-12-29T22:54:55.093Z,3.20
2018-12-29T22:57:24.589Z,2.43
2018-12-29T22:59:54.320Z,2.27
2018-12-29T23:04:59.391Z,2.27
2018-12-29T23:07:28.867Z,2.23
2018-12-29T23:09:58.254Z,2.20
2018-12-29T23:12:27.579Z,2.20
2018-12-29T23:14:57.907Z,2.10
2018-12-29T23:17:46.320Z,1.87
2018-12-29T23:20:15.671Z,2.00
2018-12-29T23:22:44.995Z,1.77
2018-12-29T23:25:14.390Z,2.00
2018-12-29T23:27:44.090Z,2.33
2018-12-29T23:30:13.394Z,3.07
2018-12-29T23:32:43.228Z,3.00
2018-12-29T23:35:12.552Z,2.90
2018-12-29T23:37:41.971Z,2.80
2018-12-29T23:40:11.389Z,2.60
2018-12-29T23:42:41.098Z,2.17
2018-12-29T23:45:10.467Z,2.23
2018-12-29T23:50:28.548Z,2.00
2018-12-29T23:52:59.787Z,1.73
2018-12-29T23:55:29.470Z,1.72
2018-12-29T23:57:59.081Z,2.00
